createdAt,value
2018-12-11T00:01:54.545Z,19.20
2018-12-11T00:04:22.541Z,21.67
2018-12-11T00:06:50.407Z,16.83
2018-12-11T00:09:18.384Z,10.43
2018-12-11T00:11:46.281Z,8.67
2018-12-11T00:14:14.327Z,7.33
2018-12-11T00:16:42.271Z,7.30
2018-12-11T00:19:10.220Z,7.73
2018-12-11T00:21:38.084Z,9.97
2018-12-11T00:24:06.121Z,11.50
2018-12-11T00:26:33.981Z,11.87
2018-12-11T00:29:01.939Z,10.73
2018-12-11T00:31:29.835Z,7.70
2018-12-11T00:33:57.865Z,10.80
2018-12-11T00:36:25.826Z,7.30
2018-12-11T00:38:53.695Z,8.20
2018-12-11T00:41:21.639Z,9.20
2018-12-11T00:43:49.517Z,7.17
2018-12-11T00:46:17.505Z,6.57
2018-12-11T00:48:45.338Z,6.60
2018-12-11T00:51:13.325Z,7.43
2018-12-11T00:53:41.201Z,9.90
2018-12-11T00:56:09.129Z,9.03
2018-12-11T00:58:36.984Z,9.13
2018-12-11T01:01:04.904Z,7.50
2018-12-11T01:03:32.875Z,8.30
2018-12-11T01:06:02.657Z,7.27
2018-12-11T01:08:30.771Z,8.97
2018-12-11T01:10:58.736Z,9.37
2018-12-11T01:13:26.586Z,8.23
2018-12-11T01:15:55.523Z,8.30
2018-12-11T01:18:23.360Z,7.93
2018-12-11T01:20:51.519Z,7.73
2018-12-11T01:23:19.367Z,7.87
2018-12-11T01:25:49.708Z,7.10
2018-12-11T01:28:17.690Z,6.53
2018-12-11T01:30:45.637Z,6.53
2018-12-11T01:33:13.532Z,6.73
2018-12-11T01:35:41.498Z,6.27
2018-12-11T01:38:09.422Z,4.97
2018-12-11T01:40:37.292Z,6.17
2018-12-11T01:43:05.253Z,5.57
2018-12-11T01:45:33.132Z,6.63
2018-12-11T01:48:01.418Z,6.80
2018-12-11T01:50:29.430Z,7.23
2018-12-11T01:52:57.385Z,6.90
2018-12-11T01:55:25.349Z,7.93
2018-12-11T01:57:53.428Z,6.80
2018-12-11T02:00:23.692Z,7.70
2018-12-11T02:02:51.590Z,10.40
2018-12-11T02:05:19.461Z,9.07
2018-12-11T02:07:47.546Z,10.83
2018-12-11T02:10:15.643Z,9.80
2018-12-11T02:12:43.878Z,10.70
2018-12-11T02:15:12.009Z,10.37
2018-12-11T02:17:40.225Z,9.33
2018-12-11T02:20:08.586Z,7.50
2018-12-11T02:22:36.673Z,8.23
2018-12-11T02:25:05.911Z,7.03
2018-12-11T02:27:34.972Z,7.07
2018-12-11T02:30:03.335Z,8.27
2018-12-11T02:32:32.209Z,8.33
2018-12-11T02:35:00.065Z,8.10
2018-12-11T02:37:27.919Z,7.47
2018-12-11T02:39:55.822Z,8.73
2018-12-11T02:42:23.672Z,7.37
2018-12-11T02:44:51.561Z,10.90
2018-12-11T02:47:19.439Z,9.80
2018-12-11T02:49:47.374Z,10.20
2018-12-11T02:52:15.330Z,9.67
2018-12-11T02:54:43.232Z,9.10
2018-12-11T02:57:11.277Z,9.80
2018-12-11T02:59:39.343Z,10.87
2018-12-11T03:02:07.163Z,10.70
2018-12-11T03:04:35.463Z,11.93
2018-12-11T03:07:03.336Z,11.13
2018-12-11T03:09:31.225Z,15.87
2018-12-11T03:11:59.473Z,12.97
2018-12-11T03:14:27.534Z,16.90
2018-12-11T03:16:55.369Z,17.10
2018-12-11T03:19:23.448Z,14.80
2018-12-11T03:21:51.765Z,15.07
2018-12-11T03:24:20.034Z,13.90
2018-12-11T03:26:48.134Z,13.50
2018-12-11T03:29:16.171Z,12.67
2018-12-11T03:31:44.262Z,13.27
2018-12-11T03:34:12.299Z,12.60
2018-12-11T03:36:40.362Z,14.13
2018-12-11T03:39:08.474Z,20.10
2018-12-11T03:41:36.550Z,19.27
2018-12-11T03:44:04.510Z,18.20
2018-12-11T03:46:33.529Z,20.03
2018-12-11T03:49:01.403Z,17.03
2018-12-11T03:51:29.304Z,17.10
2018-12-11T03:53:57.140Z,19.33
2018-12-11T03:56:25.236Z,21.30
2018-12-11T03:58:53.083Z,21.40
2018-12-11T04:01:21.204Z,19.53
2018-12-11T04:03:49.259Z,19.47
2018-12-11T04:06:17.182Z,19.20
2018-12-11T04:08:45.424Z,19.47
2018-12-11T04:11:14.479Z,16.90
2018-12-11T04:13:42.566Z,15.40
2018-12-11T04:16:10.862Z,14.67
2018-12-11T04:18:38.918Z,14.03
2018-12-11T04:21:07.958Z,13.47
2018-12-11T04:23:36.065Z,13.70
2018-12-11T04:26:04.074Z,14.23
2018-12-11T04:28:32.032Z,14.53
2018-12-11T04:30:59.939Z,15.63
2018-12-11T04:33:27.781Z,14.23
2018-12-11T04:35:55.617Z,15.07
2018-12-11T04:38:24.665Z,14.33
2018-12-11T04:40:52.549Z,14.07
2018-12-11T04:43:20.665Z,15.33
2018-12-11T04:45:48.479Z,17.23
2018-12-11T04:48:16.598Z,16.13
2018-12-11T04:50:44.425Z,16.23
2018-12-11T04:53:12.713Z,19.63
2018-12-11T04:55:40.577Z,21.00
2018-12-11T04:58:08.881Z,20.73
2018-12-11T05:00:36.853Z,22.70
2018-12-11T05:03:04.720Z,21.77
2018-12-11T05:05:32.778Z,21.90
2018-12-11T05:08:02.680Z,21.97
2018-12-11T05:10:30.529Z,23.33
2018-12-11T05:12:58.436Z,20.87
2018-12-11T05:15:26.202Z,20.03
2018-12-11T05:17:54.170Z,19.87
2018-12-11T05:20:22.007Z,18.10
2018-12-11T05:22:49.940Z,21.13
2018-12-11T05:25:17.884Z,24.97
2018-12-11T05:27:45.756Z,24.57
2018-12-11T05:30:13.616Z,26.03
2018-12-11T05:32:41.609Z,25.83
2018-12-11T05:35:09.474Z,25.90
2018-12-11T05:37:37.468Z,24.53
2018-12-11T05:40:06.728Z,24.20
2018-12-11T05:42:34.522Z,22.87
2018-12-11T05:45:02.529Z,22.27
2018-12-11T05:47:30.638Z,22.47
2018-12-11T05:49:58.473Z,23.37
2018-12-11T05:52:26.305Z,19.50
2018-12-11T05:54:54.372Z,19.70
2018-12-11T05:57:22.679Z,20.77
2018-12-11T05:59:50.582Z,23.30
2018-12-11T06:02:18.433Z,24.27
2018-12-11T06:04:46.630Z,24.73
2018-12-11T06:07:16.276Z,26.43
2018-12-11T06:09:44.765Z,24.47
2018-12-11T06:12:13.088Z,21.70
2018-12-11T06:14:41.080Z,21.00
2018-12-11T06:17:09.199Z,21.77
2018-12-11T06:19:37.088Z,21.50
2018-12-11T06:22:04.900Z,21.57
2018-12-11T06:24:32.648Z,22.93
2018-12-11T06:27:01.578Z,25.07
2018-12-11T06:29:29.405Z,21.90
2018-12-11T06:31:57.203Z,26.00
2018-12-11T06:34:24.986Z,32.90
2018-12-11T06:36:52.743Z,21.73
2018-12-11T06:39:20.784Z,22.07
2018-12-11T06:41:48.563Z,29.03
2018-12-11T06:44:16.353Z,21.23
2018-12-11T06:46:44.405Z,19.10
2018-12-11T06:49:12.144Z,20.37
2018-12-11T06:51:40.047Z,23.73
2018-12-11T06:54:07.937Z,18.10
2018-12-11T06:56:36.039Z,18.47
2018-12-11T06:59:04.094Z,17.13
2018-12-11T07:01:32.019Z,21.67
2018-12-11T07:03:59.835Z,21.60
2018-12-11T07:06:27.593Z,16.47
2018-12-11T07:08:55.369Z,12.57
2018-12-11T07:11:23.137Z,11.63
2018-12-11T07:13:50.854Z,11.07
2018-12-11T07:18:44.600Z,14.37
2018-12-11T07:21:14.122Z,11.33
2018-12-11T07:23:42.039Z,11.90
2018-12-11T07:26:10.111Z,12.77
2018-12-11T07:28:38.169Z,12.30
2018-12-11T07:31:06.245Z,13.83
2018-12-11T07:33:34.418Z,14.00
2018-12-11T07:36:02.279Z,13.03
2018-12-11T07:38:30.227Z,14.63
2018-12-11T07:40:58.329Z,13.57
2018-12-11T07:43:26.342Z,14.50
2018-12-11T07:45:54.876Z,20.10
2018-12-11T07:48:22.696Z,14.40
2018-12-11T07:50:51.679Z,15.13
2018-12-11T07:53:19.533Z,16.60
2018-12-11T07:55:48.534Z,16.53
2018-12-11T07:58:16.395Z,18.07
2018-12-11T08:00:44.292Z,28.67
2018-12-11T08:03:12.200Z,34.33
2018-12-11T08:05:40.439Z,27.97
2018-12-11T08:08:10.382Z,18.63
2018-12-11T08:10:38.301Z,18.17
2018-12-11T08:13:06.729Z,18.27
2018-12-11T08:15:34.568Z,18.27
2018-12-11T08:18:03.648Z,16.57
2018-12-11T08:20:31.633Z,16.87
2018-12-11T08:22:59.995Z,16.03
2018-12-11T08:25:27.914Z,15.97
2018-12-11T08:27:56.186Z,16.33
2018-12-11T08:30:24.237Z,15.43
2018-12-11T08:32:52.980Z,16.93
2018-12-11T08:35:21.063Z,16.03
2018-12-11T08:37:49.429Z,12.97
2018-12-11T08:40:17.553Z,9.97
2018-12-11T08:42:45.408Z,7.50
2018-12-11T08:45:13.245Z,7.17
2018-12-11T08:47:41.144Z,10.53
2018-12-11T08:50:09.204Z,4.20
2018-12-11T08:52:37.471Z,7.63
2018-12-11T08:55:05.530Z,3.90
2018-12-11T08:57:33.414Z,2.70
2018-12-11T09:00:01.292Z,2.93
2018-12-11T09:02:29.141Z,7.60
2018-12-11T09:04:57.393Z,3.63
2018-12-11T09:07:25.336Z,1.83
2018-12-11T09:09:53.345Z,3.70
2018-12-11T09:12:21.245Z,5.30
2018-12-11T09:14:49.257Z,4.90
2018-12-11T09:17:17.271Z,7.40
2018-12-11T09:19:45.398Z,10.37
2018-12-11T09:22:13.287Z,9.70
2018-12-11T09:24:41.362Z,9.67
2018-12-11T09:27:09.270Z,7.03
2018-12-11T09:29:37.093Z,4.87
2018-12-11T09:32:05.397Z,6.30
2018-12-11T09:34:33.403Z,3.80
2018-12-11T09:37:01.317Z,6.03
2018-12-11T09:39:29.174Z,3.67
2018-12-11T09:41:57.242Z,3.53
2018-12-11T09:44:25.299Z,3.30
2018-12-11T09:46:53.412Z,2.20
2018-12-11T09:49:21.445Z,2.97
2018-12-11T09:51:49.490Z,3.10
2018-12-11T09:54:17.387Z,4.33
2018-12-11T09:56:45.685Z,3.57
2018-12-11T09:59:13.961Z,4.07
2018-12-11T10:01:42.128Z,2.80
2018-12-11T10:04:10.079Z,4.00
2018-12-11T10:06:38.212Z,7.30
2018-12-11T10:09:07.395Z,7.27
2018-12-11T10:11:36.953Z,5.47
2018-12-11T10:14:04.813Z,4.13
2018-12-11T10:16:32.704Z,4.00
2018-12-11T10:19:00.819Z,4.40
2018-12-11T10:21:28.856Z,3.87
2018-12-11T10:23:57.083Z,3.70
2018-12-11T10:26:25.365Z,4.20
2018-12-11T10:28:53.257Z,3.90
2018-12-11T10:31:21.323Z,3.93
2018-12-11T10:33:49.199Z,4.60
2018-12-11T10:36:17.226Z,4.00
2018-12-11T10:38:45.083Z,3.80
2018-12-11T10:41:12.925Z,4.00
2018-12-11T10:43:40.744Z,2.83
2018-12-11T10:46:08.828Z,2.97
2018-12-11T10:48:36.711Z,3.50
2018-12-11T10:51:04.600Z,2.50
2018-12-11T10:53:32.517Z,2.80
2018-12-11T10:56:00.569Z,3.30
2018-12-11T10:58:28.434Z,3.30
2018-12-11T11:01:01.944Z,3.17
2018-12-11T11:03:30.138Z,3.40
2018-12-11T11:05:58.094Z,2.20
2018-12-11T11:08:28.280Z,2.97
2018-12-11T11:10:56.195Z,3.37
2018-12-11T11:13:24.065Z,2.73
2018-12-11T11:15:52.134Z,2.37
2018-12-11T11:18:20.203Z,1.73
2018-12-11T11:20:48.246Z,1.97
2018-12-11T11:23:16.548Z,4.53
2018-12-11T11:25:44.600Z,2.30
2018-12-11T11:28:12.549Z,2.43
2018-12-11T11:30:40.542Z,2.70
2018-12-11T11:33:08.824Z,2.00
2018-12-11T11:35:36.881Z,2.60
2018-12-11T11:38:04.718Z,2.10
2018-12-11T11:40:32.793Z,1.90
2018-12-11T11:43:00.846Z,1.43
2018-12-11T11:45:28.758Z,2.47
2018-12-11T11:47:57.808Z,1.00
2018-12-11T11:50:26.079Z,1.37
2018-12-11T11:52:53.977Z,1.17
2018-12-11T11:55:21.832Z,1.10
2018-12-11T11:57:50.150Z,1.33
2018-12-11T12:00:18.021Z,0.93
2018-12-11T12:02:46.074Z,1.63
2018-12-11T12:05:14.333Z,1.70
2018-12-11T12:07:42.186Z,1.80
2018-12-11T12:10:10.636Z,1.70
2018-12-11T12:12:39.361Z,1.60
2018-12-11T12:15:08.393Z,1.17
2018-12-11T12:17:36.300Z,1.93
2018-12-11T12:20:05.260Z,2.00
2018-12-11T12:22:33.285Z,2.00
2018-12-11T12:25:01.182Z,1.57
2018-12-11T12:27:29.214Z,3.07
2018-12-11T12:29:57.282Z,3.70
2018-12-11T12:32:25.388Z,4.00
2018-12-11T12:34:53.663Z,3.17
2018-12-11T12:37:22.518Z,3.03
2018-12-11T12:39:50.791Z,1.73
2018-12-11T12:42:18.654Z,2.63
2018-12-11T12:44:46.759Z,2.00
2018-12-11T12:47:14.793Z,1.33
2018-12-11T12:49:42.914Z,2.00
2018-12-11T12:52:10.786Z,2.10
2018-12-11T12:54:40.188Z,2.27
2018-12-11T12:57:08.568Z,2.90
2018-12-11T12:59:36.843Z,1.90
2018-12-11T13:02:04.837Z,1.90
2018-12-11T13:04:32.722Z,1.20
2018-12-11T13:07:00.917Z,1.43
2018-12-11T13:09:29.083Z,1.60
2018-12-11T13:11:57.142Z,1.93
2018-12-11T13:14:25.229Z,2.20
2018-12-11T13:16:53.304Z,2.00
2018-12-11T13:19:21.373Z,2.23
2018-12-11T13:21:49.412Z,2.80
2018-12-11T13:24:17.436Z,2.30
2018-12-11T13:26:45.276Z,1.73
2018-12-11T13:29:13.317Z,3.53
2018-12-11T13:31:41.427Z,1.30
2018-12-11T13:34:11.141Z,2.13
2018-12-11T13:36:39.106Z,1.60
2018-12-11T13:39:07.627Z,1.63
2018-12-11T13:41:35.941Z,1.23
2018-12-11T13:44:04.181Z,1.67
2018-12-11T13:46:32.719Z,1.80
2018-12-11T13:49:00.655Z,1.80
2018-12-11T13:51:28.622Z,1.63
2018-12-11T13:53:56.530Z,2.43
2018-12-11T13:56:24.565Z,2.00
2018-12-11T13:58:52.624Z,2.17
2018-12-11T14:01:20.463Z,1.80
2018-12-11T14:03:48.396Z,2.00
2018-12-11T14:06:16.671Z,1.67
2018-12-11T14:08:44.715Z,1.77
2018-12-11T14:11:12.781Z,1.63
2018-12-11T14:13:40.850Z,1.20
2018-12-11T14:16:08.739Z,1.50
2018-12-11T14:18:37.791Z,2.00
2018-12-11T14:21:06.815Z,2.00
2018-12-11T14:23:34.702Z,2.03
2018-12-11T14:26:02.872Z,1.73
2018-12-11T14:28:30.702Z,1.33
2018-12-11T14:30:59.214Z,1.30
2018-12-11T14:33:27.042Z,1.10
2018-12-11T14:35:55.160Z,1.00
2018-12-11T14:38:23.240Z,1.00
2018-12-11T14:40:51.244Z,1.17
2018-12-11T14:43:19.565Z,1.00
2018-12-11T14:45:47.845Z,0.90
2018-12-11T14:48:15.857Z,0.80
2018-12-11T14:50:43.776Z,0.97
2018-12-11T14:53:12.010Z,1.57
2018-12-11T14:55:40.127Z,2.20
2018-12-11T14:58:08.836Z,3.10
2018-12-11T15:00:36.879Z,2.83
2018-12-11T15:03:05.604Z,2.30
2018-12-11T15:05:33.612Z,1.63
2018-12-11T15:08:01.969Z,2.80
2018-12-11T15:10:29.986Z,0.93
2018-12-11T15:12:58.050Z,1.90
2018-12-11T15:15:26.099Z,16.13
2018-12-11T15:17:53.987Z,2.07
2018-12-11T15:20:22.033Z,1.23
2018-12-11T15:22:50.324Z,1.10
2018-12-11T15:25:18.170Z,1.03
2018-12-11T15:27:46.057Z,2.17
2018-12-11T15:30:13.935Z,2.63
2018-12-11T15:32:41.841Z,1.97
2018-12-11T15:35:09.871Z,1.60
2018-12-11T15:37:37.978Z,2.10
2018-12-11T15:40:06.464Z,2.20
2018-12-11T15:42:34.333Z,1.80
2018-12-11T15:45:02.565Z,1.90
2018-12-11T15:47:30.602Z,1.67
2018-12-11T15:49:58.520Z,37.80
2018-12-11T15:52:26.537Z,35.93
2018-12-11T15:54:54.456Z,5.43
2018-12-11T15:57:22.706Z,1.97
2018-12-11T15:59:50.956Z,1.87
2018-12-11T16:02:19.040Z,5.20
2018-12-11T16:04:46.938Z,3.50
2018-12-11T16:07:15.201Z,2.83
2018-12-11T16:09:43.075Z,2.43
2018-12-11T16:12:11.327Z,3.50
2018-12-11T16:14:39.462Z,5.53
2018-12-11T16:17:07.476Z,3.37
2018-12-11T16:19:35.544Z,2.40
2018-12-11T16:22:03.503Z,0.83
2018-12-11T16:24:31.445Z,1.40
2018-12-11T16:26:59.307Z,0.87
2018-12-11T16:29:27.414Z,1.10
2018-12-11T16:31:55.501Z,1.57
2018-12-11T16:34:23.508Z,1.10
2018-12-11T16:36:51.446Z,0.80
2018-12-11T16:39:19.476Z,1.30
2018-12-11T16:41:48.787Z,1.27
2018-12-11T16:44:16.925Z,0.63
2018-12-11T16:46:44.939Z,1.53
2018-12-11T16:49:12.946Z,2.20
2018-12-11T16:51:41.051Z,3.37
2018-12-11T16:54:09.115Z,2.03
2018-12-11T16:56:37.190Z,2.10
2018-12-11T16:59:05.265Z,1.40
2018-12-11T17:01:34.354Z,2.50
2018-12-11T17:04:02.261Z,1.73
2018-12-11T17:06:30.532Z,1.47
2018-12-11T17:08:58.624Z,1.90
2018-12-11T17:11:31.713Z,1.00
2018-12-11T17:13:59.611Z,1.30
2018-12-11T17:16:27.703Z,1.50
2018-12-11T17:18:55.869Z,1.47
2018-12-11T17:21:23.807Z,1.97
2018-12-11T17:23:51.771Z,2.20
2018-12-11T17:26:20.576Z,1.73
2018-12-11T17:28:48.464Z,2.20
2018-12-11T17:31:16.738Z,1.90
2018-12-11T17:33:44.784Z,2.13
2018-12-11T17:36:13.055Z,2.00
2018-12-11T17:38:41.341Z,2.77
2018-12-11T17:41:09.519Z,3.50
2018-12-11T17:43:37.893Z,3.03
2018-12-11T17:46:06.016Z,3.30
2018-12-11T17:48:41.446Z,3.23
2018-12-11T17:51:05.442Z,3.50
2018-12-11T17:53:33.868Z,4.53
2018-12-11T17:56:02.240Z,4.10
2018-12-11T17:58:30.463Z,5.93
2018-12-11T18:00:58.406Z,5.10
2018-12-11T18:03:26.404Z,3.80
2018-12-11T18:05:54.470Z,4.33
2018-12-11T18:08:22.683Z,3.53
2018-12-11T18:10:50.775Z,6.93
2018-12-11T18:13:18.898Z,5.67
2018-12-11T18:15:46.967Z,4.90
2018-12-11T18:18:15.023Z,5.63
2018-12-11T18:20:43.110Z,6.70
2018-12-11T18:23:11.383Z,6.00
2018-12-11T18:25:39.426Z,4.60
2018-12-11T18:28:07.566Z,4.13
2018-12-11T18:30:35.790Z,4.10
2018-12-11T18:33:05.071Z,5.63
2018-12-11T18:35:32.937Z,5.70
2018-12-11T18:38:00.998Z,6.47
2018-12-11T18:40:28.880Z,6.00
2018-12-11T18:42:56.988Z,6.33
2018-12-11T18:45:25.222Z,6.03
2018-12-11T18:47:53.263Z,6.60
2018-12-11T18:50:21.960Z,6.10
2018-12-11T18:52:50.245Z,7.63
2018-12-11T18:55:18.091Z,6.83
2018-12-11T18:57:46.183Z,8.37
2018-12-11T19:00:14.472Z,9.60
2018-12-11T19:02:42.570Z,9.73
2018-12-11T19:05:10.852Z,8.77
2018-12-11T19:07:39.528Z,7.57
2018-12-11T19:10:07.815Z,9.20
2018-12-11T19:12:36.063Z,9.07
2018-12-11T19:15:05.053Z,9.90
2018-12-11T19:17:33.325Z,10.83
2018-12-11T19:20:01.277Z,10.37
2018-12-11T19:22:29.580Z,10.37
2018-12-11T19:24:57.665Z,9.00
2018-12-11T19:27:26.892Z,10.77
2018-12-11T19:29:55.455Z,9.53
2018-12-11T19:32:23.510Z,13.33
2018-12-11T19:34:51.557Z,12.23
2018-12-11T19:37:19.841Z,11.03
2018-12-11T19:39:48.131Z,11.13
2018-12-11T19:42:16.204Z,11.23
2018-12-11T19:44:44.370Z,11.03
2018-12-11T19:47:12.442Z,11.87
2018-12-11T19:49:40.365Z,12.40
2018-12-11T19:52:09.279Z,14.13
2018-12-11T19:54:37.391Z,13.00
2018-12-11T19:57:05.748Z,12.07
2018-12-11T19:59:34.102Z,13.30
2018-12-11T20:02:02.185Z,16.43
2018-12-11T20:04:30.443Z,17.93
2018-12-11T20:06:58.523Z,18.37
2018-12-11T20:09:26.786Z,16.13
2018-12-11T20:11:54.872Z,17.77
2018-12-11T20:14:23.574Z,18.47
2018-12-11T20:16:51.623Z,18.50
2018-12-11T20:19:19.715Z,23.70
2018-12-11T20:21:47.625Z,19.57
2018-12-11T20:24:16.820Z,22.33
2018-12-11T20:26:44.931Z,17.73
2018-12-11T20:29:15.082Z,21.43
2018-12-11T20:31:43.316Z,19.07
2018-12-11T20:34:12.413Z,19.47
2018-12-11T20:36:40.706Z,19.83
2018-12-11T20:39:08.969Z,18.57
2018-12-11T20:41:37.036Z,21.17
2018-12-11T20:44:05.218Z,20.33
2018-12-11T20:46:33.579Z,22.83
2018-12-11T20:49:01.663Z,22.47
2018-12-11T20:51:29.710Z,21.03
2018-12-11T20:53:58.032Z,19.13
2018-12-11T20:56:27.306Z,18.07
2018-12-11T20:58:55.205Z,18.43
2018-12-11T21:01:23.241Z,16.80
2018-12-11T21:03:51.271Z,16.40
2018-12-11T21:06:19.671Z,16.00
2018-12-11T21:08:47.983Z,16.57
2018-12-11T21:11:16.130Z,15.27
2018-12-11T21:13:44.003Z,15.87
2018-12-11T21:16:11.874Z,15.20
2018-12-11T21:18:39.931Z,15.27
2018-12-11T21:21:08.635Z,16.37
2018-12-11T21:23:36.921Z,18.17
2018-12-11T21:26:04.963Z,19.80
2018-12-11T21:28:32.787Z,20.30
2018-12-11T21:31:00.687Z,21.03
2018-12-11T21:33:28.962Z,18.77
2018-12-11T21:35:57.308Z,18.77
2018-12-11T21:38:25.317Z,19.60
2018-12-11T21:40:53.386Z,21.43
2018-12-11T21:43:21.383Z,22.80
2018-12-11T21:45:49.535Z,20.10
2018-12-11T21:48:17.624Z,21.07
2018-12-11T21:50:45.469Z,20.00
2018-12-11T21:53:13.315Z,21.07
2018-12-11T21:55:41.348Z,19.30
2018-12-11T21:58:09.271Z,18.33
2018-12-11T22:00:37.773Z,16.70
2018-12-11T22:03:05.790Z,17.93
2018-12-11T22:05:34.083Z,17.03
2018-12-11T22:08:02.397Z,17.30
2018-12-11T22:10:30.619Z,18.03
2018-12-11T22:12:58.487Z,17.33
2018-12-11T22:15:27.615Z,17.90
2018-12-11T22:17:55.463Z,19.70
2018-12-11T22:20:23.769Z,20.30
2018-12-11T22:22:51.607Z,22.03
2018-12-11T22:25:19.858Z,24.50
2018-12-11T22:27:47.934Z,22.47
2018-12-11T22:30:16.008Z,27.27
2018-12-11T22:32:43.921Z,26.03
2018-12-11T22:35:12.169Z,23.70
2018-12-11T22:37:40.242Z,23.40
2018-12-11T22:40:08.302Z,24.93
2018-12-11T22:42:37.634Z,24.87
2018-12-11T22:45:05.665Z,26.40
2018-12-11T22:47:34.699Z,33.30
2018-12-11T22:50:03.065Z,30.90
2018-12-11T22:52:31.136Z,34.20
2018-12-11T22:54:58.968Z,37.57
2018-12-11T22:57:27.266Z,36.70
2018-12-11T22:59:55.319Z,36.37
2018-12-11T23:02:24.351Z,34.63
2018-12-11T23:04:52.341Z,31.97
2018-12-11T23:07:20.282Z,33.87
2018-12-11T23:09:48.122Z,32.90
2018-12-11T23:12:16.096Z,31.23
2018-12-11T23:14:44.143Z,32.03
2018-12-11T23:17:12.446Z,32.30
2018-12-11T23:19:40.324Z,31.20
2018-12-11T23:22:08.530Z,32.63
2018-12-11T23:24:36.434Z,31.47
2018-12-11T23:27:04.943Z,26.83
2018-12-11T23:29:32.978Z,26.63
2018-12-11T23:32:01.061Z,26.23
2018-12-11T23:34:29.145Z,25.57
2018-12-11T23:36:58.188Z,24.33
2018-12-11T23:39:26.479Z,24.70
2018-12-11T23:41:54.553Z,24.53
2018-12-11T23:44:22.860Z,20.73
2018-12-11T23:46:50.740Z,19.13
2018-12-11T23:49:18.989Z,19.70
2018-12-11T23:51:47.471Z,20.33
2018-12-11T23:54:15.707Z,20.30
2018-12-11T23:56:43.631Z,20.43
2018-12-11T23:59:11.910Z,21.73
